createdAt,value
2018-10-09T00:00:06.592Z,14.30
2018-10-09T00:02:34.167Z,13.70
2018-10-09T00:05:01.802Z,14.00
2018-10-09T00:07:29.394Z,13.80
2018-10-09T00:09:56.986Z,14.10
2018-10-09T00:12:24.577Z,13.90
2018-10-09T00:14:52.281Z,13.90
2018-10-09T00:17:19.966Z,13.80
2018-10-09T00:19:47.508Z,14.00
2018-10-09T00:22:15.187Z,13.80
2018-10-09T00:24:42.830Z,13.90
2018-10-09T00:27:10.382Z,13.80
2018-10-09T00:29:38.027Z,13.70
2018-10-09T00:32:05.946Z,13.90
2018-10-09T00:34:33.566Z,13.90
2018-10-09T00:37:01.309Z,14.00
2018-10-09T00:39:28.914Z,13.80
2018-10-09T00:41:56.555Z,13.60
2018-10-09T00:44:24.170Z,13.70
2018-10-09T00:46:51.847Z,13.60
2018-10-09T00:49:19.485Z,13.80
2018-10-09T00:51:47.110Z,13.40
2018-10-09T00:54:14.718Z,13.50
2018-10-09T00:56:42.377Z,13.70
2018-10-09T00:59:09.977Z,13.60
2018-10-09T01:01:37.598Z,13.50
2018-10-09T01:04:05.234Z,14.00
2018-10-09T01:06:32.914Z,14.00
2018-10-09T01:09:00.630Z,13.80
2018-10-09T01:11:28.237Z,13.80
2018-10-09T01:13:55.918Z,13.90
2018-10-09T01:16:23.597Z,13.80
2018-10-09T01:18:51.178Z,13.80
2018-10-09T01:21:18.874Z,13.70
2018-10-09T01:23:46.506Z,13.90
2018-10-09T01:26:14.130Z,13.90
2018-10-09T01:28:41.690Z,13.60
2018-10-09T01:31:09.237Z,13.50
2018-10-09T01:33:36.900Z,13.70
2018-10-09T01:36:04.587Z,13.70
2018-10-09T01:38:32.264Z,13.60
2018-10-09T01:40:59.904Z,13.60
2018-10-09T01:43:27.585Z,13.70
2018-10-09T01:45:55.228Z,13.20
2018-10-09T01:48:22.834Z,13.60
2018-10-09T01:50:50.442Z,13.70
2018-10-09T01:53:18.018Z,13.80
2018-10-09T01:55:45.598Z,13.70
2018-10-09T01:58:13.242Z,13.80
2018-10-09T02:00:40.891Z,13.80
2018-10-09T02:03:08.549Z,13.70
2018-10-09T02:05:36.113Z,13.50
2018-10-09T02:08:03.745Z,13.50
2018-10-09T02:10:31.426Z,13.70
2018-10-09T02:12:59.068Z,13.50
2018-10-09T02:15:26.750Z,13.80
2018-10-09T02:17:54.430Z,13.60
2018-10-09T02:20:21.988Z,13.50
2018-10-09T02:22:49.594Z,13.20
2018-10-09T02:25:17.198Z,13.40
2018-10-09T02:27:45.510Z,13.10
2018-10-09T02:30:13.134Z,13.20
2018-10-09T02:32:40.774Z,13.70
2018-10-09T02:35:08.427Z,13.50
2018-10-09T02:37:36.147Z,13.40
2018-10-09T02:40:04.139Z,13.30
2018-10-09T02:42:31.746Z,13.10
2018-10-09T02:44:59.316Z,13.40
2018-10-09T02:47:26.946Z,13.30
2018-10-09T02:49:54.616Z,13.20
2018-10-09T02:52:22.339Z,12.80
2018-10-09T02:54:49.941Z,13.20
2018-10-09T02:57:17.542Z,13.30
2018-10-09T02:59:45.106Z,13.20
2018-10-09T03:02:12.741Z,13.40
2018-10-09T03:04:40.449Z,13.30
2018-10-09T03:07:08.049Z,13.20
2018-10-09T03:09:35.646Z,13.00
2018-10-09T03:12:03.244Z,13.30
2018-10-09T03:14:30.956Z,13.00
2018-10-09T03:16:58.529Z,13.30
2018-10-09T03:19:26.177Z,13.20
2018-10-09T03:21:53.746Z,13.20
2018-10-09T03:24:21.382Z,13.10
2018-10-09T03:26:48.937Z,13.40
2018-10-09T03:29:16.601Z,13.10
2018-10-09T03:31:44.288Z,13.30
2018-10-09T03:34:11.930Z,13.30
2018-10-09T03:36:39.473Z,13.20
2018-10-09T03:39:07.762Z,13.30
2018-10-09T03:41:35.337Z,13.20
2018-10-09T03:44:02.959Z,13.30
2018-10-09T03:46:30.573Z,13.20
2018-10-09T03:48:58.170Z,13.30
2018-10-09T03:51:25.722Z,13.20
2018-10-09T03:53:53.363Z,13.30
2018-10-09T03:56:20.902Z,13.40
2018-10-09T03:58:48.466Z,13.60
2018-10-09T04:01:16.047Z,13.20
2018-10-09T04:03:43.751Z,13.50
2018-10-09T04:06:11.403Z,12.70
2018-10-09T04:08:39.118Z,13.10
2018-10-09T04:11:06.666Z,13.10
2018-10-09T04:13:34.356Z,13.00
2018-10-09T04:16:01.938Z,13.30
2018-10-09T04:18:29.596Z,13.10
2018-10-09T04:20:57.191Z,13.10
2018-10-09T04:23:24.779Z,13.10
2018-10-09T04:25:52.363Z,12.90
2018-10-09T04:28:20.010Z,13.10
2018-10-09T04:30:47.670Z,13.00
2018-10-09T04:33:15.357Z,13.00
2018-10-09T04:35:43.130Z,12.90
2018-10-09T04:38:10.630Z,13.00
2018-10-09T04:40:38.221Z,13.10
2018-10-09T04:43:05.806Z,12.90
2018-10-09T04:45:33.492Z,12.90
2018-10-09T04:48:01.136Z,12.90
2018-10-09T04:50:29.138Z,13.00
2018-10-09T04:52:56.847Z,12.90
2018-10-09T04:55:24.350Z,12.80
2018-10-09T04:57:51.921Z,12.80
2018-10-09T05:00:19.578Z,12.70
2018-10-09T05:02:47.090Z,13.00
2018-10-09T05:05:14.730Z,12.60
2018-10-09T05:07:42.315Z,12.70
2018-10-09T05:10:10.117Z,12.60
2018-10-09T05:12:37.778Z,12.80
2018-10-09T05:15:05.985Z,12.60
2018-10-09T05:17:33.661Z,12.50
2018-10-09T05:20:01.322Z,12.60
2018-10-09T05:22:28.874Z,12.40
2018-10-09T05:24:56.614Z,12.50
2018-10-09T05:27:24.282Z,12.60
2018-10-09T05:29:51.934Z,12.60
2018-10-09T05:32:19.489Z,12.30
2018-10-09T05:34:47.085Z,12.60
2018-10-09T05:37:14.730Z,12.50
2018-10-09T05:39:42.354Z,12.60
2018-10-09T05:42:10.057Z,12.20
2018-10-09T05:44:37.676Z,12.20
2018-10-09T05:47:05.542Z,12.60
2018-10-09T05:49:33.123Z,12.60
2018-10-09T05:52:00.777Z,12.50
2018-10-09T05:54:28.478Z,12.50
2018-10-09T05:56:56.026Z,12.50
2018-10-09T05:59:23.686Z,12.40
2018-10-09T06:01:51.294Z,12.30
2018-10-09T06:04:18.891Z,12.20
2018-10-09T06:06:46.457Z,11.90
2018-10-09T06:09:14.130Z,12.20
2018-10-09T06:11:41.710Z,12.00
2018-10-09T06:14:09.498Z,12.10
2018-10-09T06:16:37.158Z,11.90
2018-10-09T06:19:04.906Z,11.80
2018-10-09T06:21:32.566Z,11.40
2018-10-09T06:24:00.207Z,11.60
2018-10-09T06:26:27.817Z,11.60
2018-10-09T06:28:55.445Z,11.80
2018-10-09T06:31:23.033Z,11.80
2018-10-09T06:33:50.669Z,11.60
2018-10-09T06:36:18.238Z,12.20
2018-10-09T06:38:45.825Z,12.20
2018-10-09T06:41:13.533Z,12.40
2018-10-09T06:43:41.185Z,12.60
2018-10-09T06:46:08.788Z,12.60
2018-10-09T06:48:36.357Z,12.70
2018-10-09T06:51:03.942Z,12.90
2018-10-09T06:53:31.677Z,12.90
2018-10-09T06:55:59.297Z,12.80
2018-10-09T06:58:26.930Z,12.70
2018-10-09T07:00:54.624Z,13.00
2018-10-09T07:03:22.246Z,12.90
2018-10-09T07:05:49.830Z,13.00
2018-10-09T07:08:17.523Z,12.70
2018-10-09T07:10:45.148Z,12.90
2018-10-09T07:13:12.775Z,13.40
2018-10-09T07:15:40.398Z,13.50
2018-10-09T07:18:08.019Z,13.80
2018-10-09T07:20:35.667Z,14.20
2018-10-09T07:23:03.251Z,14.40
2018-10-09T07:25:30.902Z,14.90
2018-10-09T07:27:58.508Z,15.40
2018-10-09T07:30:26.050Z,15.90
2018-10-09T07:32:53.599Z,17.60
2018-10-09T07:35:21.330Z,19.30
2018-10-09T07:37:48.962Z,20.50
2018-10-09T07:40:16.563Z,21.40
2018-10-09T07:42:44.115Z,22.00
2018-10-09T07:45:11.794Z,22.40
2018-10-09T07:47:39.438Z,22.50
2018-10-09T07:50:07.170Z,22.50
2018-10-09T07:52:34.829Z,22.70
2018-10-09T07:55:02.395Z,22.90
2018-10-09T07:57:30.063Z,23.30
2018-10-09T07:59:57.745Z,23.80
2018-10-09T08:02:25.412Z,24.30
2018-10-09T08:04:53.122Z,24.90
2018-10-09T08:07:20.705Z,25.20
2018-10-09T08:09:48.331Z,25.40
2018-10-09T08:12:16.066Z,25.60
2018-10-09T08:14:43.711Z,25.80
2018-10-09T08:17:11.448Z,26.00
2018-10-09T08:19:39.043Z,26.00
2018-10-09T08:22:07.204Z,25.80
2018-10-09T08:24:34.815Z,26.00
2018-10-09T08:27:02.511Z,26.70
2018-10-09T08:29:30.146Z,26.80
2018-10-09T08:31:57.879Z,27.00
2018-10-09T08:34:25.571Z,27.10
2018-10-09T08:36:53.167Z,27.00
2018-10-09T08:39:20.730Z,27.30
2018-10-09T08:41:48.386Z,27.40
2018-10-09T08:44:15.959Z,27.70
2018-10-09T08:46:43.635Z,27.70
2018-10-09T08:49:11.215Z,27.80
2018-10-09T08:51:38.872Z,28.10
2018-10-09T08:54:06.660Z,28.30
2018-10-09T08:56:34.276Z,28.20
2018-10-09T08:59:02.165Z,28.30
2018-10-09T09:01:29.786Z,28.70
2018-10-09T09:03:57.368Z,28.80
2018-10-09T09:06:25.027Z,29.00
2018-10-09T09:08:52.731Z,28.60
2018-10-09T09:11:20.339Z,28.60
2018-10-09T09:13:47.960Z,27.90
2018-10-09T09:16:15.605Z,27.80
2018-10-09T09:18:43.303Z,27.30
2018-10-09T09:21:11.019Z,26.90
2018-10-09T09:23:38.605Z,26.90
2018-10-09T09:26:06.484Z,27.30
2018-10-09T09:28:34.070Z,28.20
2018-10-09T09:31:01.655Z,28.60
2018-10-09T09:33:29.342Z,29.00
2018-10-09T09:35:56.914Z,29.10
2018-10-09T09:38:24.470Z,29.20
2018-10-09T09:40:52.138Z,28.30
2018-10-09T09:43:19.755Z,28.30
2018-10-09T09:45:47.688Z,28.80
2018-10-09T09:48:15.331Z,29.60
2018-10-09T09:50:43.008Z,29.40
2018-10-09T09:53:12.774Z,29.80
2018-10-09T09:55:40.388Z,30.10
2018-10-09T09:58:08.127Z,29.80
2018-10-09T10:00:41.101Z,29.10
2018-10-09T10:03:08.737Z,28.40
2018-10-09T10:05:36.286Z,28.20
2018-10-09T10:08:03.934Z,28.40
2018-10-09T10:10:31.538Z,29.00
2018-10-09T10:12:59.163Z,28.90
2018-10-09T10:15:26.771Z,28.90
2018-10-09T10:17:54.433Z,28.70
2018-10-09T10:20:22.131Z,28.10
2018-10-09T10:22:49.756Z,27.60
2018-10-09T10:25:17.423Z,27.40
2018-10-09T10:27:45.074Z,27.10
2018-10-09T10:30:12.660Z,27.00
2018-10-09T10:32:40.303Z,26.90
2018-10-09T10:35:07.927Z,26.80
2018-10-09T10:37:35.600Z,26.70
2018-10-09T10:40:03.414Z,26.60
2018-10-09T10:42:31.111Z,26.50
2018-10-09T10:44:58.759Z,26.60
2018-10-09T10:47:26.414Z,26.40
2018-10-09T10:49:54.066Z,26.20
2018-10-09T10:52:21.734Z,26.10
2018-10-09T10:54:49.373Z,25.80
2018-10-09T10:57:17.055Z,25.60
2018-10-09T10:59:44.714Z,25.60
2018-10-09T11:02:12.335Z,25.60
2018-10-09T11:04:39.906Z,25.60
2018-10-09T11:07:07.534Z,25.60
2018-10-09T11:09:35.121Z,25.60
2018-10-09T11:12:02.691Z,25.60
2018-10-09T11:14:30.384Z,25.60
2018-10-09T11:16:57.956Z,25.00
2018-10-09T11:19:25.601Z,24.70
2018-10-09T11:21:53.202Z,24.40
2018-10-09T11:24:20.891Z,24.20
2018-10-09T11:26:48.523Z,24.00
2018-10-09T11:29:16.251Z,23.80
2018-10-09T11:31:43.883Z,23.60
2018-10-09T11:34:11.501Z,23.40
2018-10-09T11:36:39.215Z,23.50
2018-10-09T11:39:07.403Z,23.40
2018-10-09T11:41:35.043Z,23.30
2018-10-09T11:44:02.723Z,23.20
2018-10-09T11:46:30.299Z,23.60
2018-10-09T11:48:58.018Z,24.20
2018-10-09T11:51:25.711Z,24.60
2018-10-09T11:53:53.371Z,25.10
2018-10-09T11:56:20.923Z,25.40
2018-10-09T11:58:48.589Z,26.00
2018-10-09T12:01:16.311Z,26.80
2018-10-09T12:03:43.998Z,27.60
2018-10-09T12:06:11.575Z,28.10
2018-10-09T12:08:39.234Z,28.50
2018-10-09T12:11:06.859Z,28.80
2018-10-09T12:13:34.495Z,29.30
2018-10-09T12:16:02.177Z,29.20
2018-10-09T12:18:29.862Z,28.90
2018-10-09T12:20:57.692Z,29.00
2018-10-09T12:23:25.355Z,28.90
2018-10-09T12:25:53.015Z,28.70
2018-10-09T12:28:20.629Z,28.50
2018-10-09T12:30:48.294Z,28.70
2018-10-09T12:33:15.943Z,28.80
2018-10-09T12:35:43.530Z,29.10
2018-10-09T12:38:11.365Z,28.80
2018-10-09T12:40:38.978Z,28.70
2018-10-09T12:43:06.611Z,28.70
2018-10-09T12:45:34.183Z,28.60
2018-10-09T12:48:01.835Z,28.40
2018-10-09T12:50:29.467Z,28.30
2018-10-09T12:52:57.095Z,28.60
2018-10-09T12:55:24.762Z,29.00
2018-10-09T12:57:52.358Z,29.00
2018-10-09T13:00:19.931Z,28.80
2018-10-09T13:02:47.591Z,28.30
2018-10-09T13:05:15.195Z,28.30
2018-10-09T13:07:42.855Z,28.20
2018-10-09T13:10:10.515Z,27.70
2018-10-09T13:12:38.163Z,27.30
2018-10-09T13:15:06.663Z,27.40
2018-10-09T13:17:34.278Z,27.40
2018-10-09T13:20:02.356Z,27.60
2018-10-09T13:22:47.066Z,27.50
2018-10-09T13:25:14.633Z,27.40
2018-10-09T13:27:42.255Z,27.40
2018-10-09T13:30:09.964Z,27.10
2018-10-09T13:32:37.563Z,26.90
2018-10-09T13:35:05.239Z,26.60
2018-10-09T13:37:32.886Z,26.50
2018-10-09T13:40:00.571Z,26.00
2018-10-09T13:42:28.179Z,25.80
2018-10-09T13:44:55.827Z,25.90
2018-10-09T13:47:23.422Z,25.90
2018-10-09T13:49:51.072Z,26.00
2018-10-09T13:52:18.683Z,26.00
2018-10-09T13:54:46.390Z,25.90
2018-10-09T13:57:13.995Z,25.70
2018-10-09T13:59:41.579Z,25.60
2018-10-09T14:02:09.243Z,25.40
2018-10-09T14:04:36.791Z,25.30
2018-10-09T14:07:04.447Z,25.20
2018-10-09T14:09:32.063Z,25.10
2018-10-09T14:11:59.739Z,25.10
2018-10-09T14:14:27.389Z,25.00
2018-10-09T14:16:55.000Z,24.80
2018-10-09T14:19:22.615Z,24.70
2018-10-09T14:21:50.323Z,24.60
2018-10-09T14:24:17.903Z,24.50
2018-10-09T14:26:45.563Z,24.30
2018-10-09T14:29:13.218Z,24.20
2018-10-09T14:31:40.859Z,24.20
2018-10-09T14:34:08.707Z,24.00
2018-10-09T14:36:36.401Z,23.90
2018-10-09T14:39:05.867Z,23.80
2018-10-09T14:41:33.719Z,23.70
2018-10-09T14:44:01.374Z,23.60
2018-10-09T14:46:28.907Z,23.50
2018-10-09T14:48:56.494Z,23.40
2018-10-09T14:51:24.263Z,23.30
2018-10-09T14:53:51.918Z,23.20
2018-10-09T14:56:19.551Z,23.20
2018-10-09T14:58:47.195Z,23.00
2018-10-09T15:01:14.866Z,23.00
2018-10-09T15:03:42.502Z,22.90
2018-10-09T15:06:10.112Z,22.80
2018-10-09T15:08:37.726Z,22.70
2018-10-09T15:11:05.333Z,22.80
2018-10-09T15:13:33.119Z,22.40
2018-10-09T15:16:00.815Z,22.40
2018-10-09T15:18:28.495Z,22.20
2018-10-09T15:20:56.200Z,22.10
2018-10-09T15:23:23.908Z,22.10
2018-10-09T15:25:51.550Z,22.00
2018-10-09T15:28:19.079Z,22.00
2018-10-09T15:30:46.738Z,21.90
2018-10-09T15:33:14.368Z,21.90
2018-10-09T15:35:42.099Z,21.80
2018-10-09T15:38:09.774Z,21.70
2018-10-09T15:40:37.407Z,21.60
2018-10-09T15:43:05.149Z,21.70
2018-10-09T15:45:32.873Z,21.70
2018-10-09T15:48:00.467Z,21.40
2018-10-09T15:50:28.109Z,21.60
2018-10-09T15:52:55.692Z,21.80
2018-10-09T15:55:23.314Z,21.40
2018-10-09T15:57:51.187Z,21.50
2018-10-09T16:00:18.783Z,21.40
2018-10-09T16:02:46.428Z,21.40
2018-10-09T16:05:14.130Z,21.00
2018-10-09T16:07:42.365Z,21.40
2018-10-09T16:10:11.027Z,21.30
2018-10-09T16:12:38.904Z,21.30
2018-10-09T16:15:06.595Z,21.10
2018-10-09T16:17:34.243Z,20.80
2018-10-09T16:20:01.966Z,20.80
2018-10-09T16:22:29.554Z,20.80
2018-10-09T16:24:57.147Z,20.70
2018-10-09T16:27:24.735Z,20.80
2018-10-09T16:29:52.875Z,20.70
2018-10-09T16:32:21.166Z,20.50
2018-10-09T16:34:48.721Z,20.70
2018-10-09T16:37:16.310Z,20.50
2018-10-09T16:39:44.244Z,20.70
2018-10-09T16:42:11.799Z,20.50
2018-10-09T16:44:39.470Z,20.70
2018-10-09T16:47:07.290Z,20.30
2018-10-09T16:49:36.603Z,20.40
2018-10-09T16:52:04.252Z,20.20
2018-10-09T16:54:31.811Z,20.20
2018-10-09T16:56:59.406Z,20.10
2018-10-09T16:59:26.996Z,20.30
2018-10-09T17:01:54.560Z,20.10
2018-10-09T17:04:22.146Z,20.00
2018-10-09T17:06:50.003Z,19.40
2018-10-09T17:09:17.495Z,19.80
2018-10-09T17:11:45.128Z,19.50
2018-10-09T17:14:13.086Z,19.60
2018-10-09T17:16:40.991Z,19.60
2018-10-09T17:19:08.623Z,19.50
2018-10-09T17:21:36.298Z,19.80
2018-10-09T17:24:04.011Z,19.40
2018-10-09T17:26:31.646Z,19.50
2018-10-09T17:28:59.236Z,19.50
2018-10-09T17:31:27.913Z,19.60
2018-10-09T17:33:55.634Z,19.20
2018-10-09T17:36:23.414Z,19.30
2018-10-09T17:38:51.039Z,19.60
2018-10-09T17:41:18.830Z,19.70
2018-10-09T17:43:46.575Z,19.40
2018-10-09T17:46:14.260Z,19.30
2018-10-09T17:48:41.869Z,19.30
2018-10-09T17:51:09.524Z,19.20
2018-10-09T17:53:37.195Z,19.30
2018-10-09T17:56:04.975Z,19.20
2018-10-09T17:58:32.616Z,19.20
2018-10-09T18:01:00.269Z,19.10
2018-10-09T18:03:28.015Z,19.10
2018-10-09T18:05:55.659Z,19.20
2018-10-09T18:08:23.243Z,19.10
2018-10-09T18:10:50.960Z,18.90
2018-10-09T18:13:18.577Z,19.00
2018-10-09T18:15:46.223Z,19.10
2018-10-09T18:18:14.419Z,18.90
2018-10-09T18:20:43.143Z,19.00
2018-10-09T18:23:10.935Z,18.60
2018-10-09T18:25:38.583Z,19.00
2018-10-09T18:28:06.262Z,18.90
2018-10-09T18:30:33.901Z,18.70
2018-10-09T18:33:01.765Z,18.70
2018-10-09T18:35:29.246Z,18.40
2018-10-09T18:37:56.887Z,18.60
2018-10-09T18:40:24.521Z,18.70
2018-10-09T18:42:52.178Z,18.50
2018-10-09T18:45:19.759Z,18.50
2018-10-09T18:47:47.379Z,18.60
2018-10-09T18:50:14.997Z,18.60
2018-10-09T18:52:42.939Z,18.60
2018-10-09T18:55:12.827Z,18.20
2018-10-09T18:57:41.010Z,18.40
2018-10-09T19:00:09.274Z,18.20
2018-10-09T19:02:37.315Z,18.20
2018-10-09T19:05:05.190Z,18.20
2018-10-09T19:07:32.926Z,18.00
2018-10-09T19:10:00.566Z,18.40
2018-10-09T19:12:28.257Z,18.40
2018-10-09T19:14:55.951Z,17.90
2018-10-09T19:17:23.636Z,17.90
2018-10-09T19:19:51.283Z,18.20
2018-10-09T19:22:19.567Z,18.10
2018-10-09T19:24:47.226Z,18.10
2018-10-09T19:27:14.934Z,17.80
2018-10-09T19:29:42.632Z,18.20
2018-10-09T19:32:10.263Z,17.70
2018-10-09T19:34:38.023Z,18.00
2018-10-09T19:37:06.542Z,17.80
2018-10-09T19:39:34.258Z,18.20
2018-10-09T19:42:01.832Z,17.90
2018-10-09T19:44:29.616Z,18.00
2018-10-09T19:46:57.250Z,17.90
2018-10-09T19:49:24.951Z,18.00
2018-10-09T19:51:52.663Z,18.00
2018-10-09T19:54:20.357Z,17.60
2018-10-09T19:56:48.004Z,17.60
2018-10-09T19:59:15.777Z,17.50
2018-10-09T20:01:43.549Z,17.50
2018-10-09T20:04:11.222Z,17.70
2018-10-09T20:06:38.859Z,17.70
2018-10-09T20:09:09.063Z,17.40
2018-10-09T20:11:36.719Z,17.70
2018-10-09T20:14:04.703Z,17.30
2018-10-09T20:16:32.327Z,17.50
2018-10-09T20:18:59.965Z,17.40
2018-10-09T20:21:27.547Z,17.60
2018-10-09T20:23:55.231Z,17.50
2018-10-09T20:26:22.939Z,17.70
2018-10-09T20:28:50.558Z,17.40
2018-10-09T20:31:18.223Z,17.40
2018-10-09T20:33:45.839Z,17.60
2018-10-09T20:36:13.529Z,17.60
2018-10-09T20:38:41.139Z,17.60
2018-10-09T20:41:08.884Z,17.50
2018-10-09T20:43:36.554Z,17.70
2018-10-09T20:46:04.386Z,17.50
2018-10-09T20:48:32.191Z,17.60
2018-10-09T20:50:59.862Z,17.20
2018-10-09T20:53:27.577Z,17.60
2018-10-09T20:55:55.307Z,17.20
2018-10-09T20:58:22.948Z,17.20
2018-10-09T21:00:50.583Z,17.20
2018-10-09T21:03:18.250Z,17.30
2018-10-09T21:05:45.996Z,17.30
2018-10-09T21:08:13.583Z,17.50
2018-10-09T21:10:41.190Z,17.30
2018-10-09T21:13:08.862Z,17.00
2018-10-09T21:15:36.563Z,17.10
2018-10-09T21:18:04.278Z,17.10
2018-10-09T21:20:31.781Z,17.00
2018-10-09T21:22:59.416Z,16.90
2018-10-09T21:25:27.143Z,16.90
2018-10-09T21:27:54.763Z,16.80
2018-10-09T21:30:22.429Z,16.90
2018-10-09T21:32:50.018Z,16.70
2018-10-09T21:35:17.627Z,16.50
2018-10-09T21:37:45.267Z,16.60
2018-10-09T21:40:12.898Z,16.70
2018-10-09T21:42:40.667Z,16.50
2018-10-09T21:45:08.404Z,16.50
2018-10-09T21:47:36.187Z,16.40
2018-10-09T21:50:03.931Z,16.30
2018-10-09T21:52:31.583Z,16.70
2018-10-09T21:54:59.179Z,16.40
2018-10-09T21:57:26.870Z,16.60
2018-10-09T21:59:54.539Z,16.40
2018-10-09T22:02:22.176Z,16.30
2018-10-09T22:04:49.881Z,16.00
2018-10-09T22:07:18.000Z,16.40
2018-10-09T22:09:45.764Z,16.20
2018-10-09T22:12:13.628Z,16.50
2018-10-09T22:14:41.400Z,16.40
2018-10-09T22:17:08.995Z,16.40
2018-10-09T22:19:37.503Z,16.40
2018-10-09T22:22:05.144Z,16.10
2018-10-09T22:24:32.876Z,16.10
2018-10-09T22:27:00.415Z,16.40
2018-10-09T22:29:28.104Z,16.30
2018-10-09T22:31:55.687Z,16.20
2018-10-09T22:34:23.301Z,16.10
2018-10-09T22:36:50.935Z,16.10
2018-10-09T22:39:18.542Z,16.00
2018-10-09T22:41:46.184Z,16.10
2018-10-09T22:44:13.769Z,15.90
2018-10-09T22:46:41.336Z,16.20
2018-10-09T22:49:08.928Z,16.00
2018-10-09T22:51:36.625Z,16.10
2018-10-09T22:56:46.381Z,16.00
2018-10-09T22:59:14.047Z,16.00
2018-10-09T23:01:41.726Z,15.80
2018-10-09T23:04:09.271Z,15.40
2018-10-09T23:06:36.982Z,15.50
2018-10-09T23:09:07.580Z,15.50
2018-10-09T23:11:35.163Z,15.40
2018-10-09T23:14:02.739Z,15.70
2018-10-09T23:16:30.541Z,15.50
2018-10-09T23:18:58.195Z,15.50
2018-10-09T23:21:25.730Z,15.60
2018-10-09T23:23:53.395Z,15.50
2018-10-09T23:26:21.047Z,15.60
2018-10-09T23:28:48.782Z,15.50
2018-10-09T23:31:16.462Z,15.10
2018-10-09T23:33:44.111Z,15.40
2018-10-09T23:36:11.751Z,15.40
2018-10-09T23:38:39.343Z,15.20
2018-10-09T23:41:07.103Z,15.30
2018-10-09T23:43:34.727Z,15.40
2018-10-09T23:46:02.450Z,15.20
2018-10-09T23:48:30.088Z,15.20
2018-10-09T23:50:57.715Z,15.40
2018-10-09T23:53:25.364Z,15.50
2018-10-09T23:55:53.027Z,15.20
2018-10-09T23:58:20.659Z,14.90
